createdAt,value
2024-02-11T00:00:42.286Z,9.93
2024-02-11T00:03:09.326Z,10.48
2024-02-11T00:05:36.127Z,11.05
2024-02-11T00:08:03.007Z,10.95
2024-02-11T00:10:29.882Z,11.63
2024-02-11T00:12:58.398Z,10.63
2024-02-11T00:15:25.943Z,11.55
2024-02-11T00:17:53.500Z,10.07
2024-02-11T00:20:20.766Z,11.05
2024-02-11T00:22:50.273Z,11.15
2024-02-11T00:27:51.062Z,8.80
2024-02-11T00:30:18.419Z,9.00
2024-02-11T00:32:46.308Z,10.05
2024-02-11T00:35:16.900Z,11.15
2024-02-11T00:37:43.913Z,9.57
2024-02-11T00:40:12.078Z,9.88
2024-02-11T00:42:39.023Z,10.70
2024-02-11T00:45:06.455Z,10.25
2024-02-11T00:47:33.693Z,10.95
2024-02-11T00:50:01.208Z,11.25
2024-02-11T00:52:28.163Z,10.68
2024-02-11T00:54:55.426Z,10.95
2024-02-11T00:57:22.687Z,10.73
2024-02-11T00:59:49.945Z,9.98
2024-02-11T01:02:16.723Z,10.80
2024-02-11T01:04:44.182Z,10.25
2024-02-11T01:07:11.178Z,10.15
2024-02-11T01:09:38.089Z,9.75
2024-02-11T01:12:08.248Z,10.07
2024-02-11T01:14:35.033Z,8.43
2024-02-11T01:17:01.793Z,9.52
2024-02-11T01:19:28.587Z,8.82
2024-02-11T01:21:55.748Z,9.52
2024-02-11T01:24:23.411Z,10.00
2024-02-11T01:26:50.913Z,7.75
2024-02-11T01:29:19.152Z,7.72
2024-02-11T01:31:46.685Z,7.60
2024-02-11T01:34:13.636Z,7.57
2024-02-11T01:36:40.478Z,7.35
2024-02-11T01:39:07.387Z,7.35
2024-02-11T01:41:34.125Z,7.47
2024-02-11T01:44:01.631Z,7.00
2024-02-11T01:46:28.586Z,7.50
2024-02-11T01:48:56.023Z,6.40
2024-02-11T01:51:22.976Z,7.10
2024-02-11T01:53:50.391Z,5.88
2024-02-11T01:56:22.063Z,6.32
2024-02-11T01:58:50.496Z,5.95
2024-02-11T02:03:53.042Z,4.95
2024-02-11T02:06:20.097Z,6.07
2024-02-11T02:08:47.994Z,4.95
2024-02-11T02:11:15.100Z,4.68
2024-02-11T02:13:42.281Z,4.03
2024-02-11T02:16:09.431Z,3.92
2024-02-11T02:18:37.323Z,3.88
2024-02-11T02:21:10.258Z,3.90
2024-02-11T02:23:37.032Z,3.83
2024-02-11T02:26:09.311Z,3.55
2024-02-11T02:28:36.763Z,3.47
2024-02-11T02:31:05.221Z,3.50
2024-02-11T02:33:32.193Z,3.20
2024-02-11T02:35:59.027Z,3.63
2024-02-11T02:38:26.238Z,3.72
2024-02-11T02:40:53.178Z,3.88
2024-02-11T02:43:20.210Z,3.58
2024-02-11T02:45:46.983Z,3.58
2024-02-11T02:48:14.474Z,3.75
2024-02-11T02:50:45.244Z,3.17
2024-02-11T02:53:12.607Z,3.60
2024-02-11T02:55:40.036Z,3.08
2024-02-11T02:58:15.262Z,3.17
2024-02-11T03:00:42.657Z,2.90
2024-02-11T03:03:09.692Z,3.17
2024-02-11T03:05:42.161Z,3.13
2024-02-11T03:08:09.779Z,3.63
2024-02-11T03:10:37.148Z,3.33
2024-02-11T03:13:04.112Z,3.28
2024-02-11T03:15:31.379Z,3.13
2024-02-11T03:17:59.838Z,3.67
2024-02-11T03:20:29.283Z,4.55
2024-02-11T03:22:56.435Z,6.13
2024-02-11T03:25:23.302Z,6.70
2024-02-11T03:27:54.412Z,6.70
2024-02-11T03:30:23.578Z,7.13
2024-02-11T03:32:51.347Z,6.80
2024-02-11T03:35:18.644Z,5.30
2024-02-11T03:37:45.632Z,5.72
2024-02-11T03:40:16.670Z,6.10
2024-02-11T03:42:45.011Z,5.93
2024-02-11T03:45:12.973Z,6.15
2024-02-11T03:47:41.239Z,6.20
2024-02-11T03:50:15.640Z,6.22
2024-02-11T03:52:43.030Z,5.88
2024-02-11T03:55:11.884Z,5.82
2024-02-11T03:57:39.419Z,5.65
2024-02-11T04:00:15.742Z,5.80
2024-02-11T04:02:42.826Z,5.70
2024-02-11T04:05:13.707Z,6.45
2024-02-11T04:07:47.072Z,5.85
2024-02-11T04:10:24.056Z,7.28
2024-02-11T04:12:54.757Z,6.45
2024-02-11T04:15:25.802Z,7.30
2024-02-11T04:17:55.361Z,6.50
2024-02-11T04:23:00.072Z,6.97
2024-02-11T04:25:35.685Z,6.38
2024-02-11T04:28:12.328Z,6.38
2024-02-11T04:30:43.338Z,7.15
2024-02-11T04:33:15.879Z,6.35
2024-02-11T04:35:43.157Z,6.55
2024-02-11T04:38:13.553Z,6.40
2024-02-11T04:40:41.654Z,5.90
2024-02-11T04:43:08.510Z,6.30
2024-02-11T04:45:38.410Z,6.40
2024-02-11T04:48:06.322Z,5.13
2024-02-11T04:50:36.132Z,6.35
2024-02-11T04:53:04.243Z,5.63
2024-02-11T04:55:44.889Z,6.18
2024-02-11T04:58:32.709Z,5.68
2024-02-11T05:00:59.737Z,5.78
2024-02-11T05:03:28.770Z,6.80
2024-02-11T05:05:55.763Z,5.40
2024-02-11T05:08:26.511Z,6.32
2024-02-11T05:10:55.266Z,5.47
2024-02-11T05:16:04.690Z,4.85
2024-02-11T05:18:34.046Z,4.60
2024-02-11T05:21:03.653Z,5.43
2024-02-11T05:23:31.208Z,5.60
2024-02-11T05:25:59.278Z,5.68
2024-02-11T05:28:26.144Z,5.30
2024-02-11T05:30:56.939Z,4.80
2024-02-11T05:33:23.990Z,5.47
2024-02-11T05:35:51.880Z,5.32
2024-02-11T05:38:25.658Z,5.60
2024-02-11T05:40:57.598Z,5.30
2024-02-11T05:43:24.406Z,4.85
2024-02-11T05:45:51.210Z,4.85
2024-02-11T05:48:19.719Z,4.55
2024-02-11T05:50:47.541Z,5.32
2024-02-11T05:53:15.136Z,6.13
2024-02-11T05:55:42.332Z,5.65
2024-02-11T05:58:09.618Z,4.93
2024-02-11T06:00:38.406Z,5.07
2024-02-11T06:03:05.599Z,4.93
2024-02-11T06:05:33.128Z,5.00
2024-02-11T06:08:02.191Z,4.65
2024-02-11T06:10:36.442Z,4.60
2024-02-11T06:13:04.767Z,3.95
2024-02-11T06:15:32.865Z,4.38
2024-02-11T06:17:59.795Z,4.47
2024-02-11T06:20:26.968Z,3.65
2024-02-11T06:22:57.425Z,3.53
2024-02-11T06:25:24.575Z,3.15
2024-02-11T06:27:52.527Z,3.22
2024-02-11T06:30:21.261Z,2.72
2024-02-11T06:32:51.347Z,2.90
2024-02-11T06:35:21.146Z,2.60
2024-02-11T06:37:50.311Z,2.30
2024-02-11T06:40:19.168Z,2.40
2024-02-11T06:42:51.901Z,2.95
2024-02-11T06:45:19.524Z,1.88
2024-02-11T06:47:47.245Z,1.83
2024-02-11T06:50:15.820Z,2.03
2024-02-11T06:52:44.159Z,1.70
2024-02-11T06:55:13.409Z,1.95
2024-02-11T06:57:46.203Z,1.90
2024-02-11T07:00:16.515Z,2.20
2024-02-11T07:02:44.244Z,2.13
2024-02-11T07:05:11.796Z,1.92
2024-02-11T07:07:42.239Z,1.83
2024-02-11T07:10:10.015Z,2.17
2024-02-11T07:12:37.049Z,3.22
2024-02-11T07:15:05.898Z,2.97
2024-02-11T07:17:34.176Z,3.03
2024-02-11T07:20:01.450Z,2.70
2024-02-11T07:22:28.397Z,3.10
2024-02-11T07:24:56.545Z,3.42
2024-02-11T07:27:25.440Z,3.42
2024-02-11T07:29:53.085Z,3.08
2024-02-11T07:32:20.755Z,3.65
2024-02-11T07:34:48.361Z,3.78
2024-02-11T07:37:15.480Z,3.63
2024-02-11T07:39:42.864Z,3.75
2024-02-11T07:42:09.708Z,3.65
2024-02-11T07:44:40.437Z,3.72
2024-02-11T07:47:08.817Z,4.40
2024-02-11T07:49:36.082Z,3.60
2024-02-11T07:52:03.589Z,3.70
2024-02-11T07:54:32.251Z,3.88
2024-02-11T07:56:59.090Z,3.72
2024-02-11T07:59:25.987Z,4.55
2024-02-11T08:01:52.978Z,4.22
2024-02-11T08:04:21.836Z,4.28
2024-02-11T08:06:48.728Z,4.05
2024-02-11T08:09:15.634Z,4.40
2024-02-11T08:11:42.491Z,4.75
2024-02-11T08:14:09.532Z,4.97
2024-02-11T08:16:36.655Z,5.97
2024-02-11T08:19:04.852Z,5.28
2024-02-11T08:21:32.496Z,5.57
2024-02-11T08:23:59.600Z,5.38
2024-02-11T08:26:27.685Z,6.13
2024-02-11T08:28:55.041Z,6.00
2024-02-11T08:31:21.862Z,5.32
2024-02-11T08:33:49.244Z,6.05
2024-02-11T08:36:17.006Z,5.75
2024-02-11T08:38:43.903Z,5.00
2024-02-11T08:41:11.546Z,5.82
2024-02-11T08:43:38.949Z,5.68
2024-02-11T08:46:06.352Z,5.75
2024-02-11T08:48:34.150Z,5.88
2024-02-11T08:51:02.187Z,5.18
2024-02-11T08:53:31.788Z,4.90
2024-02-11T08:56:02.452Z,5.40
2024-02-11T08:58:29.839Z,5.85
2024-02-11T09:00:57.397Z,5.82
2024-02-11T09:03:24.501Z,6.07
2024-02-11T09:05:58.641Z,5.60
2024-02-11T09:08:26.881Z,5.47
2024-02-11T09:10:53.967Z,5.57
2024-02-11T09:13:20.940Z,5.72
2024-02-11T09:15:47.655Z,5.90
2024-02-11T09:18:16.958Z,5.97
2024-02-11T09:20:44.794Z,5.72
2024-02-11T09:23:12.099Z,5.00
2024-02-11T09:25:40.374Z,4.47
2024-02-11T09:28:08.151Z,4.85
2024-02-11T09:30:35.155Z,4.65
2024-02-11T09:33:02.918Z,4.82
2024-02-11T09:35:30.160Z,4.82
2024-02-11T09:37:57.094Z,5.13
2024-02-11T09:40:23.973Z,3.67
2024-02-11T09:42:52.055Z,4.57
2024-02-11T09:45:21.202Z,3.95
2024-02-11T09:47:52.073Z,3.92
2024-02-11T09:50:19.852Z,3.88
2024-02-11T09:52:47.935Z,3.90
2024-02-11T09:55:21.279Z,3.90
2024-02-11T09:57:48.607Z,4.28
2024-02-11T10:00:16.871Z,3.63
2024-02-11T10:02:45.912Z,4.72
2024-02-11T10:05:17.024Z,4.15
2024-02-11T10:07:45.628Z,3.85
2024-02-11T10:10:14.897Z,3.97
2024-02-11T10:12:46.028Z,3.20
2024-02-11T10:15:13.905Z,4.07
2024-02-11T10:17:43.051Z,3.75
2024-02-11T10:20:11.494Z,3.58
2024-02-11T10:22:43.459Z,3.85
2024-02-11T10:25:12.912Z,3.10
2024-02-11T10:27:40.246Z,3.88
2024-02-11T10:30:11.424Z,4.97
2024-02-11T10:32:39.123Z,3.78
2024-02-11T10:35:06.797Z,5.30
2024-02-11T10:37:39.598Z,3.85
2024-02-11T10:40:15.856Z,3.95
2024-02-11T10:45:12.100Z,3.78
2024-02-11T10:47:40.138Z,4.47
2024-02-11T10:50:08.050Z,4.22
2024-02-11T10:52:42.682Z,4.05
2024-02-11T10:55:12.359Z,4.05
2024-02-11T10:57:57.613Z,4.55
2024-02-11T11:00:27.557Z,4.28
2024-02-11T11:02:59.993Z,3.22
2024-02-11T11:05:35.915Z,4.03
2024-02-11T11:08:03.622Z,4.80
2024-02-11T11:10:38.358Z,4.85
2024-02-11T11:13:05.738Z,4.40
2024-02-11T11:15:33.230Z,4.18
2024-02-11T11:18:03.007Z,3.78
2024-02-11T11:20:32.156Z,4.63
2024-02-11T11:23:00.410Z,4.63
2024-02-11T11:25:32.385Z,3.70
2024-02-11T11:28:11.473Z,3.80
2024-02-11T11:30:38.576Z,3.42
2024-02-11T11:33:06.364Z,3.28
2024-02-11T11:35:33.780Z,3.20
2024-02-11T11:38:06.746Z,3.17
2024-02-11T11:40:38.743Z,3.72
2024-02-11T11:43:21.587Z,2.65
2024-02-11T11:45:55.802Z,2.97
2024-02-11T11:48:25.768Z,2.72
2024-02-11T11:51:00.083Z,2.67
2024-02-11T11:53:28.371Z,3.08
2024-02-11T11:56:02.438Z,2.67
2024-02-11T11:58:32.131Z,2.33
2024-02-11T12:01:01.146Z,3.97
2024-02-11T12:03:29.810Z,3.10
2024-02-11T12:05:57.621Z,2.47
2024-02-11T12:08:26.722Z,3.17
2024-02-11T12:11:04.878Z,3.30
2024-02-11T12:13:34.086Z,3.03
2024-02-11T12:16:03.338Z,4.00
2024-02-11T12:18:31.423Z,3.53
2024-02-11T12:20:59.143Z,3.25
2024-02-11T12:23:26.288Z,3.78
2024-02-11T12:25:57.740Z,3.45
2024-02-11T12:28:28.890Z,3.50
2024-02-11T12:31:14.999Z,4.55
2024-02-11T12:33:43.733Z,2.80
2024-02-11T12:36:14.705Z,2.88
2024-02-11T12:38:48.232Z,3.15
2024-02-11T12:41:16.768Z,2.75
2024-02-11T12:43:48.255Z,2.88
2024-02-11T12:46:15.684Z,2.38
2024-02-11T12:48:44.342Z,2.33
2024-02-11T12:51:17.716Z,2.15
2024-02-11T12:53:46.709Z,2.33
2024-02-11T12:56:14.919Z,1.80
2024-02-11T12:58:43.793Z,1.58
2024-02-11T13:01:15.618Z,1.48
2024-02-11T13:03:43.809Z,1.88
2024-02-11T13:06:11.399Z,1.15
2024-02-11T13:08:39.294Z,1.67
2024-02-11T13:11:07.171Z,2.13
2024-02-11T13:13:35.560Z,1.65
2024-02-11T13:16:03.416Z,1.60
2024-02-11T13:18:30.588Z,1.67
2024-02-11T13:20:59.206Z,1.48
2024-02-11T13:23:27.005Z,2.20
2024-02-11T13:25:54.399Z,1.95
2024-02-11T13:28:22.707Z,1.30
2024-02-11T13:30:54.413Z,1.58
2024-02-11T13:33:27.117Z,1.90
2024-02-11T13:35:54.470Z,1.60
2024-02-11T13:38:24.195Z,1.95
2024-02-11T13:40:51.169Z,1.63
2024-02-11T13:43:18.432Z,1.55
2024-02-11T13:45:45.768Z,1.20
2024-02-11T13:48:12.813Z,1.10
2024-02-11T13:50:40.705Z,1.15
2024-02-11T13:53:08.176Z,1.20
2024-02-11T13:55:35.492Z,1.25
2024-02-11T13:58:03.729Z,1.80
2024-02-11T14:00:30.873Z,1.13
2024-02-11T14:02:59.035Z,0.88
2024-02-11T14:05:26.074Z,1.30
2024-02-11T14:07:53.336Z,0.88
2024-02-11T14:10:22.036Z,1.00
2024-02-11T14:12:50.056Z,1.27
2024-02-11T14:15:17.827Z,1.00
2024-02-11T14:17:51.475Z,0.88
2024-02-11T14:20:18.957Z,1.23
2024-02-11T14:22:46.606Z,0.90
2024-02-11T14:25:16.892Z,1.05
2024-02-11T14:27:49.409Z,1.00
2024-02-11T14:30:18.847Z,0.80
2024-02-11T14:32:49.709Z,1.00
2024-02-11T14:35:17.978Z,0.80
2024-02-11T14:37:45.301Z,0.75
2024-02-11T14:40:16.866Z,0.70
2024-02-11T14:42:48.208Z,0.98
2024-02-11T14:45:16.215Z,1.05
2024-02-11T15:13:18.627Z,0.95
2024-02-11T15:15:45.692Z,0.88
2024-02-11T15:18:13.304Z,0.95
2024-02-11T15:20:41.925Z,1.35
2024-02-11T15:25:38.104Z,0.80
2024-02-11T15:28:05.192Z,1.38
2024-02-11T15:30:31.969Z,1.50
2024-02-11T15:32:59.987Z,1.33
2024-02-11T15:35:29.289Z,1.20
2024-02-11T15:40:23.655Z,1.35
2024-02-11T15:42:50.593Z,1.05
2024-02-11T15:45:19.290Z,1.15
2024-02-11T15:47:46.272Z,1.10
2024-02-11T15:50:13.399Z,1.38
2024-02-11T15:52:40.567Z,1.00
2024-02-11T15:55:08.539Z,1.55
2024-02-11T15:57:36.697Z,2.13
2024-02-11T16:00:03.752Z,1.50
2024-02-11T16:02:30.549Z,2.70
2024-02-11T16:04:57.435Z,1.50
2024-02-11T16:07:24.387Z,1.75
2024-02-11T16:09:52.671Z,1.98
2024-02-11T16:12:19.484Z,2.50
2024-02-11T16:14:46.562Z,2.25
2024-02-11T16:17:13.493Z,2.00
2024-02-11T16:19:41.700Z,2.08
2024-02-11T16:22:08.883Z,2.25
2024-02-11T16:24:36.846Z,1.67
2024-02-11T16:27:03.887Z,1.67
2024-02-11T16:29:31.347Z,1.58
2024-02-11T16:32:01.407Z,2.10
2024-02-11T16:34:28.339Z,1.67
2024-02-11T16:36:55.118Z,1.98
2024-02-11T16:39:21.924Z,1.77
2024-02-11T16:41:48.693Z,1.70
2024-02-11T16:44:18.436Z,2.00
2024-02-11T16:46:45.306Z,1.73
2024-02-11T16:49:12.351Z,1.50
2024-02-11T16:51:39.124Z,1.90
2024-02-11T16:54:06.074Z,1.70
2024-02-11T16:56:32.908Z,2.00
2024-02-11T16:59:00.658Z,2.15
2024-02-11T17:01:27.535Z,2.05
2024-02-11T17:03:54.304Z,2.20
2024-02-11T17:06:21.196Z,2.10
2024-02-11T17:08:48.138Z,2.60
2024-02-11T17:11:15.108Z,1.80
2024-02-11T17:13:42.388Z,2.22
2024-02-11T17:16:09.204Z,1.90
2024-02-11T17:18:36.207Z,1.77
2024-02-11T17:21:11.261Z,2.38
2024-02-11T17:23:39.833Z,2.45
2024-02-11T17:26:12.314Z,2.58
2024-02-11T17:28:42.436Z,2.40
2024-02-11T17:31:09.276Z,2.50
2024-02-11T17:33:37.380Z,2.90
2024-02-11T17:36:05.078Z,2.30
2024-02-11T17:38:32.571Z,2.17
2024-02-11T17:40:59.535Z,1.73
2024-02-11T17:43:27.228Z,1.67
2024-02-11T17:45:54.138Z,1.63
2024-02-11T17:48:21.059Z,1.45
2024-02-11T17:50:53.108Z,1.90
2024-02-11T17:53:22.004Z,1.83
2024-02-11T17:55:53.237Z,1.98
2024-02-11T17:58:20.136Z,1.88
2024-02-11T18:00:56.554Z,2.25
2024-02-11T18:03:27.505Z,2.50
2024-02-11T18:05:54.574Z,2.08
2024-02-11T18:08:21.482Z,1.50
2024-02-11T18:10:48.959Z,2.55
2024-02-11T18:13:15.813Z,1.77
2024-02-11T18:15:43.368Z,1.70
2024-02-11T18:18:11.728Z,2.22
2024-02-11T18:20:39.981Z,1.85
2024-02-11T18:23:07.645Z,1.90
2024-02-11T18:25:48.268Z,1.88
2024-02-11T18:28:22.396Z,1.70
2024-02-11T18:30:49.900Z,2.10
2024-02-11T18:33:18.013Z,1.85
2024-02-11T18:35:45.040Z,1.70
2024-02-11T18:38:12.145Z,1.83
2024-02-11T18:40:39.040Z,1.60
2024-02-11T18:43:09.201Z,2.10
2024-02-11T18:45:36.442Z,1.70
2024-02-11T18:48:03.547Z,1.55
2024-02-11T18:50:30.416Z,1.75
2024-02-11T18:52:58.970Z,1.98
2024-02-11T18:55:26.579Z,1.60
2024-02-11T18:57:54.518Z,2.08
2024-02-11T19:00:21.654Z,1.52
2024-02-11T19:02:48.681Z,2.13
2024-02-11T19:05:17.436Z,1.67
2024-02-11T19:07:44.695Z,2.03
2024-02-11T19:10:24.265Z,2.15
2024-02-11T19:12:51.081Z,1.52
2024-02-11T19:15:18.353Z,2.10
2024-02-11T19:17:49.371Z,2.50
2024-02-11T19:20:20.843Z,2.45
2024-02-11T19:22:50.708Z,2.20
2024-02-11T19:25:18.922Z,2.28
2024-02-11T19:27:47.237Z,2.30
2024-02-11T19:30:15.090Z,3.00
2024-02-11T19:32:42.241Z,2.83
2024-02-11T19:35:10.320Z,3.15
2024-02-11T19:37:39.020Z,2.80
2024-02-11T19:40:08.224Z,2.97
2024-02-11T19:42:39.004Z,3.00
2024-02-11T19:45:07.870Z,3.20
2024-02-11T19:47:39.661Z,3.08
2024-02-11T19:50:13.423Z,3.13
2024-02-11T19:52:40.398Z,3.45
2024-02-11T19:55:11.885Z,3.63
2024-02-11T19:57:41.737Z,2.83
2024-02-11T20:00:12.275Z,3.45
2024-02-11T20:02:43.191Z,2.92
2024-02-11T20:05:14.229Z,3.20
2024-02-11T20:07:42.029Z,3.20
2024-02-11T20:10:10.681Z,4.13
2024-02-11T20:12:39.142Z,3.08
2024-02-11T20:15:07.463Z,3.15
2024-02-11T20:17:36.168Z,3.30
2024-02-11T20:20:07.309Z,3.60
2024-02-11T20:22:34.500Z,3.88
2024-02-11T20:25:01.274Z,3.20
2024-02-11T20:27:28.789Z,3.72
2024-02-11T20:29:55.555Z,3.90
2024-02-11T20:32:23.158Z,4.18
2024-02-11T20:34:49.978Z,4.13
2024-02-11T20:37:17.823Z,4.40
2024-02-11T20:39:47.058Z,4.10
2024-02-11T20:42:13.819Z,4.30
2024-02-11T20:44:40.663Z,3.80
2024-02-11T20:47:08.300Z,3.45
2024-02-11T20:49:35.754Z,3.30
2024-02-11T20:52:02.537Z,3.75
2024-02-11T20:54:31.755Z,4.65
2024-02-11T20:56:58.994Z,3.63
2024-02-11T20:59:25.872Z,3.63
2024-02-11T21:01:52.887Z,4.18
2024-02-11T21:04:21.240Z,3.70
2024-02-11T21:06:49.311Z,4.00
2024-02-11T21:09:16.594Z,3.15
2024-02-11T21:11:46.632Z,3.83
2024-02-11T21:14:13.783Z,3.50
2024-02-11T21:16:42.170Z,3.47
2024-02-11T21:19:09.791Z,4.10
2024-02-11T21:21:39.788Z,3.10
2024-02-11T21:24:11.384Z,3.20
2024-02-11T21:26:38.425Z,3.40
2024-02-11T21:29:05.399Z,3.80
2024-02-11T21:31:34.356Z,3.72
2024-02-11T21:34:01.762Z,3.47
2024-02-11T21:36:28.737Z,5.18
2024-02-11T21:38:55.610Z,4.10
2024-02-11T21:41:22.460Z,3.85
2024-02-11T21:43:50.529Z,4.13
2024-02-11T21:49:03.792Z,3.35
2024-02-11T21:51:35.845Z,3.70
2024-02-11T21:54:03.297Z,4.07
2024-02-11T21:56:30.169Z,3.53
2024-02-11T21:58:57.032Z,4.40
2024-02-11T22:01:24.237Z,4.35
2024-02-11T22:03:51.365Z,4.53
2024-02-11T22:06:20.061Z,4.40
2024-02-11T22:08:47.598Z,4.85
2024-02-11T22:11:14.435Z,3.75
2024-02-11T22:13:41.187Z,3.92
2024-02-11T22:19:23.863Z,4.47
2024-02-11T22:21:50.718Z,4.18
2024-02-11T22:24:18.605Z,4.45
2024-02-11T22:26:45.362Z,4.50
2024-02-11T22:29:12.299Z,3.95
2024-02-11T22:31:39.418Z,4.45
2024-02-11T22:34:06.546Z,4.60
2024-02-11T22:36:33.475Z,4.05
2024-02-11T22:39:00.295Z,3.70
2024-02-11T22:41:28.334Z,5.25
2024-02-11T22:43:55.448Z,4.03
2024-02-11T22:46:22.355Z,4.43
2024-02-11T22:48:49.211Z,3.63
2024-02-11T22:51:16.090Z,3.92
2024-02-11T22:53:43.037Z,4.35
2024-02-11T22:56:10.995Z,4.75
2024-02-11T22:58:37.827Z,4.90
2024-02-11T23:01:04.932Z,4.32
2024-02-11T23:03:33.509Z,4.78
2024-02-11T23:06:00.480Z,4.50
2024-02-11T23:08:27.426Z,4.32
2024-02-11T23:10:54.443Z,4.18
2024-02-11T23:13:21.310Z,4.30
2024-02-11T23:15:52.547Z,3.50
2024-02-11T23:18:19.913Z,5.60
2024-02-11T23:20:47.012Z,3.80
2024-02-11T23:23:13.842Z,4.03
2024-02-11T23:25:40.757Z,4.10
2024-02-11T23:28:09.015Z,3.90
2024-02-11T23:30:38.806Z,2.95
2024-02-11T23:33:07.435Z,3.45
2024-02-11T23:35:37.298Z,3.67
2024-02-11T23:38:04.818Z,3.30
2024-02-11T23:40:34.579Z,3.38
2024-02-11T23:43:01.484Z,3.13
2024-02-11T23:45:28.218Z,3.55
2024-02-11T23:47:55.315Z,3.25
2024-02-11T23:50:23.976Z,4.30
2024-02-11T23:52:51.353Z,3.08
2024-02-11T23:55:18.347Z,3.45
2024-02-11T23:57:46.233Z,3.45
